Observation data for Northfield on 06/16/2019      Previous  Date  Next       Current Mesonet Observations  Soil Data  Daily Summary Page  Observations in Plain Language
KNOR 160500Z 14004G9KT 19/15 A2987 RMK A01 T01910149  RH  080%=      5-min Rain = 0
KNOR 160505Z 08005G10KT 21/13 A2989 RMK A01 T02110132  RH  063%=      5-min Rain = 0
KNOR 160510Z 04005KT 22/13 A2989 RMK A01 T02160129  RH  060%=      5-min Rain = 0
KNOR 160515Z 08004KT 21/13 A299 RMK A01 T02110134  RH  064%=      5-min Rain = 0
KNOR 160520Z 08005KT 21/13 A299 RMK A01 T02110132  RH  063%=      5-min Rain = 0
KNOR 160525Z 08004KT 21/13 A299 RMK A01 T02120129  RH  061%=      5-min Rain = 0
KNOR 160530Z 08005KT 21/13 A299 RMK A01 T02140130  RH  061%=      5-min Rain = 0
KNOR 160535Z 06005KT 22/13 A2991 RMK A01 T02170127  RH  059%=      5-min Rain = 0
KNOR 160540Z 06005KT 22/13 A2991 RMK A01 T02180126  RH  058%=      5-min Rain = 0
KNOR 160545Z 07005KT 22/13 A2992 RMK A01 T02190125  RH  057%=      5-min Rain = 0
KNOR 160550Z 10004KT 22/13 A2992 RMK A01 T02170127  RH  059%=      5-min Rain = 0
KNOR 160555Z 10004KT 21/13 A2992 RMK A01 T02120131  RH  062%=      5-min Rain = 0
KNOR 160600Z 07003KT 21/13 A2992 RMK A01 T02120130  RH  062%=      5-min Rain = 0
KNOR 160605Z 04003KT 22/12 A2992 RMK A01 T02180124  RH  057%=      5-min Rain = 0
KNOR 160610Z 03005KT 22/13 A2992 RMK A01 T02190128  RH  058%=      5-min Rain = 0
KNOR 160615Z 02005KT 21/13 A2992 RMK A01 T02140130  RH  061%=      5-min Rain = 0
KNOR 160620Z 01006KT 21/13 A2991 RMK A01 T02100132  RH  063%=      5-min Rain = 0
KNOR 160625Z 00006KT 21/13 A2991 RMK A01 T02080133  RH  065%=      5-min Rain = 0
KNOR 160630Z 01006KT 21/13 A2991 RMK A01 T02050134  RH  066%=      5-min Rain = 0
KNOR 160635Z 02005KT 21/13 A2991 RMK A01 T02050132  RH  066%=      5-min Rain = 0
KNOR 160640Z 03004KT 21/13 A2992 RMK A01 T02070130  RH  064%=      5-min Rain = 0
KNOR 160645Z 04005KT 21/13 A2992 RMK A01 T02070130  RH  064%=      5-min Rain = 0
KNOR 160650Z 04006KT 21/13 A2992 RMK A01 T02080128  RH  062%=      5-min Rain = 0
KNOR 160655Z 04008KT 21/13 A2992 RMK A01 T02050127  RH  063%=      5-min Rain = 0
KNOR 160700Z 04009KT 21/13 A2991 RMK A01 T02050128  RH  064%=      5-min Rain = 0
KNOR 160705Z 04009KT 20/13 A2991 RMK A01 T02020129  RH  065%=      5-min Rain = 0
KNOR 160710Z 04008KT 20/13 A2991 RMK A01 T02000129  RH  066%=      5-min Rain = 0
KNOR 160715Z 04007KT 20/13 A299 RMK A01 T01960130  RH  068%=      5-min Rain = 0
KNOR 160720Z 03007KT 20/13 A299 RMK A01 T01950130  RH  069%=      5-min Rain = 0
KNOR 160725Z 02006KT 20/13 A299 RMK A01 T01950130  RH  069%=      5-min Rain = 0
KNOR 160730Z 01008KT 20/13 A299 RMK A01 T01950129  RH  068%=      5-min Rain = 0
KNOR 160735Z 01008KT 20/13 A2989 RMK A01 T01960126  RH  066%=      5-min Rain = 0
KNOR 160740Z 36007KT 19/13 A2989 RMK A01 T01940127  RH  068%=      5-min Rain = 0
KNOR 160745Z 01007KT 19/13 A2989 RMK A01 T01910129  RH  070%=      5-min Rain = 0
KNOR 160750Z 01007KT 19/13 A2989 RMK A01 T01880130  RH  072%=      5-min Rain = 0
KNOR 160755Z 02008KT 19/13 A2989 RMK A01 T01900129  RH  070%=      5-min Rain = 0
KNOR 160800Z 02008KT 19/13 A2988 RMK A01 T01900128  RH  070%=      5-min Rain = 0
KNOR 160805Z 01007KT 19/13 A2988 RMK A01 T01880128  RH  071%=      5-min Rain = 0
KNOR 160810Z 02007KT 19/13 A2988 RMK A01 T01870129  RH  072%=      5-min Rain = 0
KNOR 160815Z 02007KT 19/13 A2988 RMK A01 T01860129  RH  072%=      5-min Rain = 0
KNOR 160820Z 03007KT 19/13 A2988 RMK A01 T01850129  RH  073%=      5-min Rain = 0
KNOR 160825Z 06007KT 19/13 A2988 RMK A01 T01850128  RH  072%=      5-min Rain = 0
KNOR 160830Z 06007KT 19/13 A2988 RMK A01 T01850127  RH  072%=      5-min Rain = 0
KNOR 160835Z 06007KT 19/13 A2988 RMK A01 T01860129  RH  073%=      5-min Rain = 0
KNOR 160840Z 06007G12KT 19/13 A2988 RMK A01 T01860130  RH  072%=      5-min Rain = 0
KNOR 160845Z 06004KT 19/13 A2988 RMK A01 T01860131  RH  073%=      5-min Rain = 0
KNOR 160850Z 05002KT 18/13 A2988 RMK A01 T01840132  RH  075%=      5-min Rain = 0
KNOR 160855Z 03001KT 18/13 A2988 RMK A01 T01820134  RH  076%=      5-min Rain = 0
KNOR 160900Z 30002KT 18/14 A2988 RMK A01 T01750135  RH  081%=      5-min Rain = 0
KNOR 160905Z 29004KT 17/14 A2989 RMK A01 T01710138  RH  084%=      5-min Rain = 0
KNOR 160910Z 29005KT 17/14 A2989 RMK A01 T01710140  RH  085%=      5-min Rain = 0
KNOR 160915Z 28004KT 17/14 A299 RMK A01 T01710141  RH  086%=      5-min Rain = 0
KNOR 160920Z 30005KT 17/14 A299 RMK A01 T01720141  RH  086%=      5-min Rain = 0
KNOR 160925Z 30006KT 17/14 A299 RMK A01 T01720140  RH  085%=      5-min Rain = 0
KNOR 160930Z 31005KT 17/14 A299 RMK A01 T01710140  RH  085%=      5-min Rain = 0
KNOR 160935Z 32003KT 17/14 A2989 RMK A01 T01710139  RH  085%=      5-min Rain = 0
KNOR 160940Z 31002KT 17/14 A2989 RMK A01 T01730137  RH  083%=      5-min Rain = 0
KNOR 160945Z 32004KT 18/14 A2989 RMK A01 T01750136  RH  081%=      5-min Rain = 0
KNOR 160950Z 31003KT 17/13 A2989 RMK A01 T01740134  RH  080%=      5-min Rain = 0
KNOR 160955Z 32004KT 18/13 A2989 RMK A01 T01750133  RH  080%=      5-min Rain = 0
KNOR 161000Z 31004KT 17/13 A2989 RMK A01 T01720133  RH  081%=      5-min Rain = 0
KNOR 161005Z 28002KT 17/13 A2988 RMK A01 T01720133  RH  081%=      5-min Rain = 0
KNOR 161010Z 24004KT 17/14 A2989 RMK A01 T01670135  RH  085%=      5-min Rain = 0
KNOR 161015Z 24004KT 16/14 A2989 RMK A01 T01620135  RH  087%=      5-min Rain = 0
KNOR 161020Z 25004KT 16/13 A2989 RMK A01 T01620134  RH  087%=      5-min Rain = 0
KNOR 161025Z 26006KT 16/13 A2989 RMK A01 T01610134  RH  087%=      5-min Rain = 0
KNOR 161030Z 25005KT 16/14 A2989 RMK A01 T01600135  RH  088%=      5-min Rain = 0
KNOR 161035Z 26005KT 16/14 A299 RMK A01 T01610135  RH  088%=      5-min Rain = 0
KNOR 161040Z 27004KT 16/14 A2989 RMK A01 T01620135  RH  087%=      5-min Rain = 0
KNOR 161045Z 27004KT 17/14 A2989 RMK A01 T01650135  RH  086%=      5-min Rain = 0
KNOR 161050Z 28005KT 16/14 A299 RMK A01 T01640136  RH  087%=      5-min Rain = 0
KNOR 161055Z 29005KT 16/14 A299 RMK A01 T01640137  RH  088%=      5-min Rain = 0
KNOR 161100Z 29003KT 17/14 A299 RMK A01 T01650137  RH  087%=      5-min Rain = 0
KNOR 161105Z 30002KT 17/14 A2989 RMK A01 T01670139  RH  087%=      5-min Rain = 0
KNOR 161110Z 31003KT 17/14 A2989 RMK A01 T01670140  RH  088%=      5-min Rain = 0
KNOR 161115Z 31004KT 17/14 A2989 RMK A01 T01700138  RH  085%=      5-min Rain = 0
KNOR 161120Z 32003KT 17/14 A2989 RMK A01 T01740135  RH  081%=      5-min Rain = 0
KNOR 161125Z 34004KT 18/13 A2989 RMK A01 T01770134  RH  079%=      5-min Rain = 0
KNOR 161130Z 34005KT 18/14 A2989 RMK A01 T01760135  RH  080%=      5-min Rain = 0
KNOR 161135Z 36004KT 18/14 A2989 RMK A01 T01750136  RH  081%=      5-min Rain = 0
KNOR 161140Z 01002KT 18/14 A2989 RMK A01 T01750137  RH  082%=      5-min Rain = 0
KNOR 161145Z 36001KT 18/14 A2989 RMK A01 T01760139  RH  082%=      5-min Rain = 0
KNOR 161150Z 04001KT 18/14 A2989 RMK A01 T01760140  RH  083%=      5-min Rain = 0
KNOR 161155Z 36002KT 18/14 A299 RMK A01 T01750141  RH  084%=      5-min Rain = 0
KNOR 161200Z 35003KT 17/14 A299 RMK A01 T01740144  RH  086%=      5-min Rain = 0
KNOR 161205Z 34003KT 18/14 A299 RMK A01 T01750142  RH  085%=      5-min Rain = 0
KNOR 161210Z 31003KT 18/14 A2991 RMK A01 T01750144  RH  086%=      5-min Rain = 0
KNOR 161215Z 32004KT 17/14 A2992 RMK A01 T01740144  RH  086%=      5-min Rain = 0
KNOR 161220Z 31003KT 17/15 A2992 RMK A01 T01740145  RH  087%=      5-min Rain = 0
KNOR 161225Z 33002KT 17/15 A2993 RMK A01 T01740145  RH  087%=      5-min Rain = 0
KNOR 161230Z 33002KT 18/15 A2993 RMK A01 T01760146  RH  086%=      5-min Rain = 0
KNOR 161235Z 29002KT 18/15 A2993 RMK A01 T01770147  RH  086%=      5-min Rain = 0
KNOR 161240Z 30002KT 18/15 A2993 RMK A01 T01780148  RH  087%=      5-min Rain = 0
KNOR 161245Z 32003KT 18/15 A2993 RMK A01 T01780147  RH  086%=      5-min Rain = 0
KNOR 161250Z 34002KT 18/15 A2993 RMK A01 T01790146  RH  085%=      5-min Rain = 0
KNOR 161255Z 33002KT 18/14 A2993 RMK A01 T01800144  RH  083%=      5-min Rain = 0
KNOR 161300Z 34001KT 18/14 A2993 RMK A01 T01820144  RH  082%=      5-min Rain = 0
KNOR 161305Z 01002KT 18/15 A2993 RMK A01 T01830147  RH  083%=      5-min Rain = 0
KNOR 161310Z 02002KT 19/15 A2993 RMK A01 T01850148  RH  083%=      5-min Rain = 0
KNOR 161315Z 09003KT 19/15 A2992 RMK A01 T01860148  RH  082%=      5-min Rain = 0
KNOR 161320Z 11004KT 19/15 A2991 RMK A01 T01870147  RH  081%=      5-min Rain = 0
KNOR 161325Z 13005KT 19/15 A2991 RMK A01 T01880150  RH  083%=      5-min Rain = 0
KNOR 161330Z 15002KT 19/15 A2992 RMK A01 T01880153  RH  084%=      5-min Rain = 0
KNOR 161335Z 36002KT 19/15 A2993 RMK A01 T01900152  RH  082%=      5-min Rain = 0
KNOR 161340Z 32003KT 19/15 A2994 RMK A01 T01920151  RH  081%=      5-min Rain = 0
KNOR 161345Z 33005KT 19/15 A2994 RMK A01 T01920154  RH  082%=      5-min Rain = 0
KNOR 161350Z 34005KT 19/15 A2994 RMK A01 T01890151  RH  082%=      5-min Rain = 0
KNOR 161355Z 31003KT 19/15 A2995 RMK A01 T01880151  RH  082%=      5-min Rain = 0
KNOR 161400Z 30003KT 19/15 A2995 RMK A01 T01890151  RH  082%=      5-min Rain = 0
KNOR 161405Z 29004KT 19/15 A2996 RMK A01 T01900153  RH  083%=      5-min Rain = 0
KNOR 161410Z 29002KT 19/15 A2996 RMK A01 T01900151  RH  082%=      5-min Rain = 0
KNOR 161415Z 29003KT 19/15 A2996 RMK A01 T01900153  RH  082%=      5-min Rain = 0
KNOR 161420Z 30002KT 19/16 A2996 RMK A01 T01900155  RH  084%=      5-min Rain = 0
KNOR 161425Z 35001KT 19/15 A2996 RMK A01 T01900154  RH  083%=      5-min Rain = 0
KNOR 161430Z 34002KT 19/15 A2996 RMK A01 T01920148  RH  079%=      5-min Rain = 0
KNOR 161435Z 30003KT 19/15 A2997 RMK A01 T01930152  RH  081%=      5-min Rain = 0
KNOR 161440Z 31003KT 19/15 A2997 RMK A01 T01930153  RH  081%=      5-min Rain = 0
KNOR 161445Z 31003KT 19/15 A2998 RMK A01 T01940152  RH  080%=      5-min Rain = 0
KNOR 161450Z 32004KT 20/15 A2998 RMK A01 T01950151  RH  079%=      5-min Rain = 0
KNOR 161455Z 33004KT 20/15 A2998 RMK A01 T01950151  RH  079%=      5-min Rain = 0
KNOR 161500Z 32005KT 20/15 A2998 RMK A01 T01950149  RH  078%=      5-min Rain = 0
KNOR 161505Z 33005KT 20/15 A2998 RMK A01 T01950151  RH  079%=      5-min Rain = 0
KNOR 161510Z 34006KT 20/15 A2998 RMK A01 T01950150  RH  079%=      5-min Rain = 0
KNOR 161515Z 34006KT 20/15 A2997 RMK A01 T01960151  RH  079%=      5-min Rain = 0
KNOR 161520Z 36005KT 20/15 A2997 RMK A01 T01960152  RH  079%=      5-min Rain = 0
KNOR 161525Z 02006KT 20/15 A2997 RMK A01 T01980150  RH  077%=      5-min Rain = 0
KNOR 161530Z 36006KT 20/15 A2997 RMK A01 T02000153  RH  078%=      5-min Rain = 0
KNOR 161535Z 34006KT 20/15 A2997 RMK A01 T02000152  RH  077%=      5-min Rain = 0
KNOR 161540Z 34005KT 20/15 A2997 RMK A01 T02030153  RH  077%=      5-min Rain = 0
KNOR 161545Z 33004KT 20/15 A2998 RMK A01 T02040152  RH  075%=      5-min Rain = 0
KNOR 161550Z 35006KT 20/15 A2997 RMK A01 T02040149  RH  074%=      5-min Rain = 0
KNOR 161555Z 35008KT 20/15 A2997 RMK A01 T02030150  RH  075%=      5-min Rain = 0
KNOR 161600Z 35009KT 20/15 A2997 RMK A01 T02040152  RH  075%=      5-min Rain = 0
KNOR 161605Z 35008KT 21/15 A2998 RMK A01 T02070153  RH  074%=      5-min Rain = 0
KNOR 161610Z 35007KT 21/15 A2998 RMK A01 T02110154  RH  073%=      5-min Rain = 0
KNOR 161615Z 35006KT 22/16 A2998 RMK A01 T02150156  RH  072%=      5-min Rain = 0
KNOR 161620Z 36007KT 22/15 A2997 RMK A01 T02170152  RH  070%=      5-min Rain = 0
KNOR 161625Z 36006KT 22/15 A2997 RMK A01 T02190153  RH  069%=      5-min Rain = 0
KNOR 161630Z 34007KT 22/15 A2997 RMK A01 T02190153  RH  069%=      5-min Rain = 0
KNOR 161635Z 35007KT 22/16 A2997 RMK A01 T02220155  RH  069%=      5-min Rain = 0
KNOR 161640Z 35007KT 22/15 A2997 RMK A01 T02230153  RH  068%=      5-min Rain = 0
KNOR 161645Z 36008KT 22/15 A2997 RMK A01 T02240151  RH  066%=      5-min Rain = 0
KNOR 161650Z 01008KT 22/15 A2996 RMK A01 T02210150  RH  067%=      5-min Rain = 0
KNOR 161655Z 36008KT 22/15 A2996 RMK A01 T02200149  RH  067%=      5-min Rain = 0
KNOR 161700Z 35007KT 22/15 A2997 RMK A01 T02200151  RH  068%=      5-min Rain = 0
KNOR 161705Z 36008KT 22/15 A2997 RMK A01 T02190151  RH  068%=      5-min Rain = 0
KNOR 161710Z 36007KT 22/15 A2996 RMK A01 T02200152  RH  069%=      5-min Rain = 0
KNOR 161715Z 36007KT 22/15 A2997 RMK A01 T02180151  RH  069%=      5-min Rain = 0
KNOR 161720Z 35006KT 22/15 A2997 RMK A01 T02180151  RH  069%=      5-min Rain = 0
KNOR 161725Z 36007KT 22/15 A2996 RMK A01 T02180152  RH  069%=      5-min Rain = 0
KNOR 161730Z 34006KT 22/16 A2996 RMK A01 T02180155  RH  070%=      5-min Rain = 0
KNOR 161735Z 35006KT 22/16 A2996 RMK A01 T02180155  RH  070%=      5-min Rain = 0
KNOR 161740Z 34005KT 22/15 A2996 RMK A01 T02160154  RH  071%=      5-min Rain = 0
KNOR 161745Z 34005KT 22/15 A2996 RMK A01 T02150152  RH  070%=      5-min Rain = 0
KNOR 161750Z 00005KT 22/15 A2995 RMK A01 T02160151  RH  069%=      5-min Rain = 0
KNOR 161755Z 00004KT 22/15 A2995 RMK A01 T02170153  RH  070%=      5-min Rain = 0
KNOR 161800Z 35005KT 22/16 A2995 RMK A01 T02190155  RH  070%=      5-min Rain = 0
KNOR 161805Z 01004KT 22/15 A2995 RMK A01 T02190154  RH  070%=      5-min Rain = 0
KNOR 161810Z 34003KT 22/16 A2995 RMK A01 T02190157  RH  071%=      5-min Rain = 0
KNOR 161815Z 01004KT 22/16 A2995 RMK A01 T02190155  RH  070%=      5-min Rain = 0
KNOR 161820Z 35004KT 22/16 A2995 RMK A01 T02180155  RH  071%=      5-min Rain = 0
KNOR 161825Z 36004KT 22/16 A2994 RMK A01 T02180156  RH  071%=      5-min Rain = 0
KNOR 161830Z 35004KT 22/16 A2994 RMK A01 T02190158  RH  071%=      5-min Rain = 0
KNOR 161835Z 00004KT 22/15 A2994 RMK A01 T02190154  RH  069%=      5-min Rain = 0
KNOR 161840Z 00003KT 22/16 A2994 RMK A01 T02220156  RH  069%=      5-min Rain = 0
KNOR 161845Z 33002KT 22/15 A2994 RMK A01 T02230154  RH  068%=      5-min Rain = 0
KNOR 161850Z 35003KT 22/16 A2994 RMK A01 T02240155  RH  068%=      5-min Rain = 0
KNOR 161855Z 33003KT 23/16 A2994 RMK A01 T02250155  RH  068%=      5-min Rain = 0
KNOR 161900Z 00002KT 23/16 A2993 RMK A01 T02270156  RH  067%=      5-min Rain = 0
KNOR 161905Z 01004KT 23/16 A2993 RMK A01 T02290155  RH  066%=      5-min Rain = 0
KNOR 161910Z 36004KT 23/16 A2993 RMK A01 T02300157  RH  066%=      5-min Rain = 0
KNOR 161915Z 35005KT 23/16 A2993 RMK A01 T02320157  RH  066%=      5-min Rain = 0
KNOR 161920Z 35005KT 23/16 A2993 RMK A01 T02330156  RH  065%=      5-min Rain = 0
KNOR 161925Z 35005KT 23/16 A2993 RMK A01 T02340156  RH  064%=      5-min Rain = 0
KNOR 161930Z 35005KT 24/16 A2993 RMK A01 T02350155  RH  064%=      5-min Rain = 0
KNOR 161935Z 33003KT 24/16 A2993 RMK A01 T02410156  RH  062%=      5-min Rain = 0
KNOR 161940Z 00004KT 24/16 A2992 RMK A01 T02390156  RH  063%=      5-min Rain = 0
KNOR 161945Z 02005KT 24/15 A2992 RMK A01 T02420153  RH  060%=      5-min Rain = 0
KNOR 161950Z 01005KT 25/16 A2992 RMK A01 T02520155  RH  057%=      5-min Rain = 0
KNOR 161955Z 34004KT 25/15 A2992 RMK A01 T02530154  RH  057%=      5-min Rain = 0
KNOR 162000Z 34005KT 25/15 A2991 RMK A01 T02480152  RH  057%=      5-min Rain = 0
KNOR 162005Z 35005KT 25/15 A2991 RMK A01 T02480151  RH  057%=      5-min Rain = 0
KNOR 162010Z 33004KT 25/15 A2991 RMK A01 T02530150  RH  055%=      5-min Rain = 0
KNOR 162015Z 33003KT 26/15 A2991 RMK A01 T02570150  RH  054%=      5-min Rain = 0
KNOR 162020Z 34003KT 26/15 A2991 RMK A01 T02630153  RH  053%=      5-min Rain = 0
KNOR 162025Z 02004KT 26/15 A2991 RMK A01 T02630151  RH  053%=      5-min Rain = 0
KNOR 162030Z 29002KT 26/15 A2991 RMK A01 T02610154  RH  054%=      5-min Rain = 0
KNOR 162035Z 29003KT 27/16 A2991 RMK A01 T02680156  RH  053%=      5-min Rain = 0
KNOR 162040Z 29003KT 27/16 A2991 RMK A01 T02650155  RH  053%=      5-min Rain = 0
KNOR 162045Z 34005KT 27/16 A2991 RMK A01 T02670156  RH  053%=      5-min Rain = 0
KNOR 162050Z 00005KT 27/15 A2991 RMK A01 T02650153  RH  053%=      5-min Rain = 0
KNOR 162055Z 02004KT 27/15 A299 RMK A01 T02680153  RH  052%=      5-min Rain = 0
KNOR 162100Z 35003KT 27/15 A299 RMK A01 T02670145  RH  049%=      5-min Rain = 0
KNOR 162105Z 00003KT 27/15 A299 RMK A01 T02720146  RH  048%=      5-min Rain = 0
KNOR 162110Z 00004KT 27/14 A299 RMK A01 T02670144  RH  049%=      5-min Rain = 0
KNOR 162115Z 02003KT 26/14 A299 RMK A01 T02630143  RH  050%=      5-min Rain = 0
KNOR 162120Z 34003KT 27/14 A299 RMK A01 T02660142  RH  048%=      5-min Rain = 0
KNOR 162125Z 32003KT 27/14 A299 RMK A01 T02670141  RH  048%=      5-min Rain = 0
KNOR 162130Z 35002KT 27/14 A299 RMK A01 T02690142  RH  048%=      5-min Rain = 0
KNOR 162135Z 03004KT 28/15 A299 RMK A01 T02760146  RH  047%=      5-min Rain = 0
KNOR 162140Z 02005G10KT 28/14 A299 RMK A01 T02770138  RH  044%=      5-min Rain = 0
KNOR 162145Z 02004KT 27/13 A299 RMK A01 T02710133  RH  044%=      5-min Rain = 0
KNOR 162150Z 01006KT 27/14 A299 RMK A01 T02730141  RH  046%=      5-min Rain = 0
KNOR 162155Z 01006KT 27/14 A299 RMK A01 T02730139  RH  046%=      5-min Rain = 0
KNOR 162200Z 00004KT 27/14 A299 RMK A01 T02730137  RH  045%=      5-min Rain = 0
KNOR 162205Z 01006KT 27/14 A299 RMK A01 T02730139  RH  046%=      5-min Rain = 0
KNOR 162210Z 00006KT 27/14 A299 RMK A01 T02680138  RH  047%=      5-min Rain = 0
KNOR 162215Z 00007KT 27/14 A2989 RMK A01 T02660141  RH  048%=      5-min Rain = 0
KNOR 162220Z 35006KT 27/15 A2989 RMK A01 T02690145  RH  048%=      5-min Rain = 0
KNOR 162225Z 01007KT 27/14 A2989 RMK A01 T02680141  RH  047%=      5-min Rain = 0
KNOR 162230Z 34006KT 27/15 A2989 RMK A01 T02700146  RH  048%=      5-min Rain = 0
KNOR 162235Z 36006KT 28/15 A2989 RMK A01 T02750145  RH  047%=      5-min Rain = 0
KNOR 162240Z 36007KT 27/15 A2989 RMK A01 T02710145  RH  048%=      5-min Rain = 0
KNOR 162245Z 34006KT 27/15 A2989 RMK A01 T02690145  RH  049%=      5-min Rain = 0
KNOR 162250Z 36005KT 27/15 A2989 RMK A01 T02680145  RH  049%=      5-min Rain = 0
KNOR 162255Z 34007KT 27/15 A2989 RMK A01 T02690147  RH  049%=      5-min Rain = 0
KNOR 162300Z 33007KT 27/15 A2988 RMK A01 T02670146  RH  050%=      5-min Rain = 0
KNOR 162305Z 33006KT 27/15 A2988 RMK A01 T02720148  RH  049%=      5-min Rain = 0
KNOR 162310Z 33006KT 27/15 A2988 RMK A01 T02740146  RH  048%=      5-min Rain = 0
KNOR 162315Z 33006KT 27/15 A2988 RMK A01 T02650147  RH  050%=      5-min Rain = 0
KNOR 162320Z 35005KT 27/15 A2988 RMK A01 T02650148  RH  051%=      5-min Rain = 0
KNOR 162325Z 34006KT 27/15 A2988 RMK A01 T02730151  RH  049%=      5-min Rain = 0
KNOR 162330Z 35006KT 28/15 A2988 RMK A01 T02780149  RH  047%=      5-min Rain = 0
KNOR 162335Z 00005KT 27/15 A2988 RMK A01 T02710146  RH  048%=      5-min Rain = 0
KNOR 162340Z 01004KT 27/15 A2988 RMK A01 T02650150  RH  051%=      5-min Rain = 0
KNOR 162345Z 00005KT 26/15 A2988 RMK A01 T02640150  RH  052%=      5-min Rain = 0
KNOR 162350Z 01006KT 26/15 A2988 RMK A01 T02630149  RH  052%=      5-min Rain = 0
KNOR 162355Z 01005KT 26/15 A2988 RMK A01 T02640152  RH  052%=      5-min Rain = 0
KNOR 170000Z 02004KT 27/15 A2988 RMK A01 T02720154  RH  051%=      5-min Rain = 0
KNOR 170005Z 01005KT 28/15 A2988 RMK A01 T02750152  RH  049%=      5-min Rain = 0
KNOR 170010Z 01005KT 27/15 A2988 RMK A01 T02740150  RH  049%=      5-min Rain = 0
KNOR 170015Z 01004KT 27/15 A2988 RMK A01 T02730150  RH  049%=      5-min Rain = 0
KNOR 170020Z 04005KT 27/15 A2988 RMK A01 T02720150  RH  049%=      5-min Rain = 0
KNOR 170025Z 04006KT 27/15 A2988 RMK A01 T02710150  RH  050%=      5-min Rain = 0
KNOR 170030Z 04007KT 27/15 A2987 RMK A01 T02700150  RH  050%=      5-min Rain = 0
KNOR 170035Z 05007KT 27/15 A2988 RMK A01 T02690154  RH  052%=      5-min Rain = 0
KNOR 170040Z 04007KT 27/16 A2988 RMK A01 T02670156  RH  053%=      5-min Rain = 0
KNOR 170045Z 05007KT 27/16 A2988 RMK A01 T02660156  RH  053%=      5-min Rain = 0
KNOR 170050Z 04006KT 27/16 A2988 RMK A01 T02650158  RH  054%=      5-min Rain = 0
KNOR 170055Z 04006KT 26/16 A2988 RMK A01 T02640160  RH  055%=      5-min Rain = 0
KNOR 170100Z 04006KT 26/16 A2988 RMK A01 T02620159  RH  056%=      5-min Rain = 0
KNOR 170105Z 04005KT 26/16 A2988 RMK A01 T02600159  RH  056%=      5-min Rain = 0
KNOR 170110Z 04004KT 26/16 A2989 RMK A01 T02590161  RH  057%=      5-min Rain = 0
KNOR 170115Z 04004KT 26/16 A2989 RMK A01 T02580161  RH  058%=      5-min Rain = 0
KNOR 170120Z 04003KT 26/16 A2989 RMK A01 T02550159  RH  058%=      5-min Rain = 0
KNOR 170125Z 05003KT 25/16 A299 RMK A01 T02540159  RH  059%=      5-min Rain = 0
KNOR 170130Z 06003KT 25/16 A299 RMK A01 T02510161  RH  060%=      5-min Rain = 0
KNOR 170135Z 06003KT 25/16 A299 RMK A01 T02470161  RH  062%=      5-min Rain = 0
KNOR 170140Z 06003KT 25/16 A299 RMK A01 T02460161  RH  062%=      5-min Rain = 0
KNOR 170145Z 07003KT 24/16 A299 RMK A01 T02430162  RH  063%=      5-min Rain = 0
KNOR 170150Z 07003KT 24/16 A2991 RMK A01 T02400161  RH  064%=      5-min Rain = 0
KNOR 170155Z 06003KT 24/16 A2991 RMK A01 T02380161  RH  065%=      5-min Rain = 0
KNOR 170200Z 06003KT 24/16 A2991 RMK A01 T02370161  RH  066%=      5-min Rain = 0
KNOR 170205Z 07003KT 24/16 A2991 RMK A01 T02350161  RH  066%=      5-min Rain = 0
KNOR 170210Z 06004KT 23/16 A2991 RMK A01 T02340161  RH  067%=      5-min Rain = 0
KNOR 170215Z 05004KT 23/16 A2991 RMK A01 T02330161  RH  067%=      5-min Rain = 0
KNOR 170220Z 06005KT 23/16 A2991 RMK A01 T02310163  RH  069%=      5-min Rain = 0
KNOR 170225Z 07004KT 23/16 A2991 RMK A01 T02280163  RH  070%=      5-min Rain = 0
KNOR 170230Z 07005KT 23/16 A2991 RMK A01 T02260164  RH  071%=      5-min Rain = 0
KNOR 170235Z 07004KT 22/16 A2991 RMK A01 T02240164  RH  073%=      5-min Rain = 0
KNOR 170240Z 09004KT 22/16 A2991 RMK A01 T02230164  RH  073%=      5-min Rain = 0
KNOR 170245Z 09005KT 22/16 A2992 RMK A01 T02240163  RH  072%=      5-min Rain = 0
KNOR 170250Z 09004KT 22/16 A2991 RMK A01 T02230162  RH  072%=      5-min Rain = 0
KNOR 170255Z 10004KT 22/16 A2991 RMK A01 T02220162  RH  072%=      5-min Rain = 0
KNOR 170300Z 11004KT 22/16 A2992 RMK A01 T02200161  RH  073%=      5-min Rain = 0
KNOR 170305Z 11003KT 22/16 A2992 RMK A01 T02190162  RH  073%=      5-min Rain = 0
KNOR 170310Z 10004KT 22/16 A2992 RMK A01 T02200161  RH  073%=      5-min Rain = 0
KNOR 170315Z 11004KT 22/16 A2992 RMK A01 T02200161  RH  072%=      5-min Rain = 0
KNOR 170320Z 12004KT 22/16 A2992 RMK A01 T02190161  RH  073%=      5-min Rain = 0
KNOR 170325Z 13004KT 22/16 A2992 RMK A01 T02160161  RH  074%=      5-min Rain = 0
KNOR 170330Z 12004KT 22/16 A2992 RMK A01 T02150161  RH  074%=      5-min Rain = 0
KNOR 170335Z 11005KT 22/16 A2993 RMK A01 T02160161  RH  074%=      5-min Rain = 0
KNOR 170340Z 11005KT 22/16 A2993 RMK A01 T02160161  RH  074%=      5-min Rain = 0
KNOR 170345Z 11005KT 22/16 A2993 RMK A01 T02150161  RH  075%=      5-min Rain = 0
KNOR 170350Z 10005KT 21/16 A2994 RMK A01 T02140161  RH  076%=      5-min Rain = 0
KNOR 170355Z 10005KT 21/16 A2994 RMK A01 T02130161  RH  076%=      5-min Rain = 0
KNOR 170400Z 10005KT 21/16 A2994 RMK A01 T02120161  RH  076%=      5-min Rain = 0
KNOR 170405Z 10005KT 21/16 A2994 RMK A01 T02120161  RH  076%=      5-min Rain = 0
KNOR 170410Z 10004KT 21/16 A2995 RMK A01 T02100161  RH  077%=      5-min Rain = 0
KNOR 170415Z 11004KT 21/16 A2995 RMK A01 T02080160  RH  077%=      5-min Rain = 0
KNOR 170420Z 12005KT 21/16 A2996 RMK A01 T02080160  RH  077%=      5-min Rain = 0
KNOR 170425Z 12004KT 21/16 A2996 RMK A01 T02060160  RH  078%=      5-min Rain = 0
KNOR 170430Z 12005KT 21/16 A2996 RMK A01 T02050160  RH  079%=      5-min Rain = 0
KNOR 170435Z 12006KT 21/16 A2996 RMK A01 T02050160  RH  079%=      5-min Rain = 0
KNOR 170440Z 12005KT 21/16 A2996 RMK A01 T02060159  RH  078%=      5-min Rain = 0
KNOR 170445Z 12005KT 21/16 A2996 RMK A01 T02070158  RH  077%=      5-min Rain = 0
KNOR 170450Z 11005KT 21/16 A2996 RMK A01 T02060158  RH  077%=      5-min Rain = 0
KNOR 170455Z 11005KT 21/16 A2996 RMK A01 T02060157  RH  077%=      5-min Rain = 0

Page generated in 0.0155 seconds.